createdAt,value
2017-06-06T00:00:11.082Z,1005.81
2017-06-06T00:01:20.340Z,1005.76
2017-06-06T00:02:29.298Z,1005.74
2017-06-06T00:03:38.259Z,1005.71
2017-06-06T00:04:47.216Z,1005.71
2017-06-06T00:05:56.196Z,1005.72
2017-06-06T00:07:05.403Z,1005.68
2017-06-06T00:08:14.363Z,1005.68
2017-06-06T00:09:23.332Z,1005.62
2017-06-06T00:10:32.295Z,1005.6
2017-06-06T00:11:41.257Z,1005.57
2017-06-06T00:12:50.464Z,1005.59
2017-06-06T00:13:59.422Z,1005.58
2017-06-06T00:15:08.379Z,1005.53
2017-06-06T00:16:17.337Z,1005.51
2017-06-06T00:17:26.298Z,1005.51
2017-06-06T00:18:35.879Z,1005.49
2017-06-06T00:19:44.836Z,1005.51
2017-06-06T00:20:54.122Z,1005.46
2017-06-06T00:22:03.078Z,1005.46
2017-06-06T00:23:12.033Z,1005.44
2017-06-06T00:24:21.325Z,1005.47
2017-06-06T00:25:30.281Z,1005.49
2017-06-06T00:26:39.234Z,1005.43
2017-06-06T00:27:48.190Z,1005.43
2017-06-06T00:28:57.154Z,1005.41
2017-06-06T00:30:06.365Z,1005.35
2017-06-06T00:31:15.334Z,1005.33
2017-06-06T00:32:24.290Z,1005.35
2017-06-06T00:33:33.246Z,1005.33
2017-06-06T00:34:42.206Z,1005.32
2017-06-06T00:35:51.413Z,1005.31
2017-06-06T00:37:00.375Z,1005.28
2017-06-06T00:38:09.334Z,1005.26
2017-06-06T00:39:18.291Z,1005.26
2017-06-06T00:40:27.277Z,1005.23
2017-06-06T00:41:36.486Z,1005.24
2017-06-06T00:42:45.472Z,1005.21
2017-06-06T00:43:54.431Z,1005.2
2017-06-06T00:45:03.387Z,1005.2
2017-06-06T00:46:12.343Z,1005.2
2017-06-06T00:47:21.551Z,1005.22
2017-06-06T00:48:30.512Z,1005.2
2017-06-06T00:49:39.463Z,1005.19
2017-06-06T00:50:48.416Z,1005.16
2017-06-06T00:51:57.402Z,1005.16
2017-06-06T00:53:06.607Z,1005.17
2017-06-06T00:54:15.567Z,1005.14
2017-06-06T00:55:24.528Z,1005.12
2017-06-06T00:56:33.487Z,1005.09
2017-06-06T00:57:42.441Z,1005.08
2017-06-06T00:58:51.651Z,1005.07
2017-06-06T01:00:00.699Z,1005.06
2017-06-06T01:01:09.656Z,1005.05
2017-06-06T01:02:18.617Z,1005
2017-06-06T01:03:27.575Z,1005.03
2017-06-06T01:04:36.782Z,1005.04
2017-06-06T01:05:45.745Z,1005.04
2017-06-06T01:06:54.728Z,1005
2017-06-06T01:08:03.683Z,1004.99
2017-06-06T01:09:12.642Z,1004.99
2017-06-06T01:10:21.901Z,1004.97
2017-06-06T01:11:30.861Z,1004.96
2017-06-06T01:12:39.816Z,1004.9
2017-06-06T01:13:48.772Z,1004.91
2017-06-06T01:14:57.730Z,1004.89
2017-06-06T01:16:06.936Z,1004.85
2017-06-06T01:17:15.981Z,1004.82
2017-06-06T01:18:24.936Z,1004.77
2017-06-06T01:19:33.891Z,1004.73
2017-06-06T01:20:42.847Z,1004.64
2017-06-06T01:21:52.053Z,1004.63
2017-06-06T01:23:01.009Z,1004.63
2017-06-06T01:24:09.963Z,1004.56
2017-06-06T01:25:18.916Z,1004.57
2017-06-06T01:26:27.879Z,1004.55
2017-06-06T01:27:37.089Z,1004.52
2017-06-06T01:28:46.048Z,1004.54
2017-06-06T01:29:55.002Z,1004.5
2017-06-06T01:31:03.961Z,1004.46
2017-06-06T01:32:13.017Z,1004.43
2017-06-06T01:33:22.551Z,1004.42
2017-06-06T01:34:31.507Z,1004.35
2017-06-06T01:35:40.463Z,1004.33
2017-06-06T01:36:49.416Z,1004.3
2017-06-06T01:37:58.373Z,1004.23
2017-06-06T01:39:07.582Z,1004.3
2017-06-06T01:40:16.540Z,1004.22
2017-06-06T01:41:25.498Z,1004.22
2017-06-06T01:42:34.450Z,1004.23
2017-06-06T01:43:43.406Z,1004.22
2017-06-06T01:44:52.361Z,1004.23
2017-06-06T01:46:01.318Z,1004.23
2017-06-06T01:47:10.276Z,1004.18
2017-06-06T01:48:19.322Z,1004.22
2017-06-06T01:49:28.617Z,1004.16
2017-06-06T01:50:37.632Z,1004.16
2017-06-06T01:51:46.590Z,1004.13
2017-06-06T01:52:55.549Z,1004.14
2017-06-06T01:54:04.508Z,1004.11
2017-06-06T01:55:13.470Z,1004.13
2017-06-06T01:56:22.433Z,1004.09
2017-06-06T01:57:31.393Z,1004.11
2017-06-06T01:58:40.346Z,1004.07
2017-06-06T01:59:49.304Z,1004.09
2017-06-06T02:00:58.265Z,1004.02
2017-06-06T02:02:07.276Z,1004
2017-06-06T02:03:16.236Z,1003.97
2017-06-06T02:04:25.191Z,1003.98
2017-06-06T02:05:34.143Z,1003.92
2017-06-06T02:06:43.098Z,1003.92
2017-06-06T02:07:52.143Z,1003.89
2017-06-06T02:09:01.104Z,1003.86
2017-06-06T02:10:10.060Z,1003.83
2017-06-06T02:11:19.013Z,1003.79
2017-06-06T02:12:28.057Z,1003.76
2017-06-06T02:13:37.266Z,1003.72
2017-06-06T02:14:46.223Z,1003.72
2017-06-06T02:15:55.176Z,1003.71
2017-06-06T02:17:04.134Z,1003.69
2017-06-06T02:18:13.177Z,1003.71
2017-06-06T02:19:22.434Z,1003.67
2017-06-06T02:20:31.393Z,1003.67
2017-06-06T02:21:40.357Z,1003.64
2017-06-06T02:22:49.314Z,1003.63
2017-06-06T02:23:58.275Z,1003.61
2017-06-06T02:25:07.479Z,1003.6
2017-06-06T02:26:16.435Z,1003.56
2017-06-06T02:27:25.388Z,1003.55
2017-06-06T02:28:34.381Z,1003.54
2017-06-06T02:29:43.343Z,1003.52
2017-06-06T02:30:52.603Z,1003.54
2017-06-06T02:32:01.562Z,1003.46
2017-06-06T02:33:10.519Z,1003.43
2017-06-06T02:34:19.475Z,1003.41
2017-06-06T02:35:28.520Z,1003.39
2017-06-06T02:36:37.727Z,1003.36
2017-06-06T02:37:46.684Z,1003.37
2017-06-06T02:38:55.639Z,1003.33
2017-06-06T02:40:04.632Z,1003.29
2017-06-06T02:41:13.595Z,1003.24
2017-06-06T02:42:22.894Z,1003.27
2017-06-06T02:43:31.853Z,1003.28
2017-06-06T02:44:40.807Z,1003.23
2017-06-06T02:45:49.765Z,1003.18
2017-06-06T02:46:58.732Z,1003.16
2017-06-06T02:48:07.943Z,1003.19
2017-06-06T02:49:16.896Z,1003.12
2017-06-06T02:50:25.846Z,1003.13
2017-06-06T02:51:34.800Z,1003.11
2017-06-06T02:52:43.850Z,1003.11
2017-06-06T02:53:53.057Z,1003.14
2017-06-06T02:55:02.018Z,1003.12
2017-06-06T02:56:10.970Z,1003.08
2017-06-06T02:57:19.933Z,1003.06
2017-06-06T02:58:28.934Z,1003.09
2017-06-06T02:59:38.190Z,1003.12
2017-06-06T03:00:47.150Z,1003.06
2017-06-06T03:01:56.100Z,1003.1
2017-06-06T03:03:05.063Z,1003.05
2017-06-06T03:04:14.019Z,1003.05
2017-06-06T03:05:23.228Z,1003.03
2017-06-06T03:06:32.188Z,1003.03
2017-06-06T03:07:41.147Z,1002.96
2017-06-06T03:08:50.102Z,1002.98
2017-06-06T03:09:59.085Z,1002.96
2017-06-06T03:11:08.293Z,1002.95
2017-06-06T03:12:17.248Z,1002.93
2017-06-06T03:13:26.212Z,1002.93
2017-06-06T03:14:35.197Z,1002.93
2017-06-06T03:15:44.153Z,1002.92
2017-06-06T03:16:53.448Z,1002.87
2017-06-06T03:18:02.410Z,1002.84
2017-06-06T03:19:11.364Z,1002.83
2017-06-06T03:20:20.321Z,1002.85
2017-06-06T03:21:29.365Z,1002.83
2017-06-06T03:22:38.568Z,1002.82
2017-06-06T03:23:47.522Z,1002.81
2017-06-06T03:24:56.483Z,1002.81
2017-06-06T03:26:05.440Z,1002.78
2017-06-06T03:27:14.402Z,1002.77
2017-06-06T03:28:23.700Z,1002.73
2017-06-06T03:29:32.655Z,1002.71
2017-06-06T03:30:41.615Z,1002.73
2017-06-06T03:31:50.567Z,1002.73
2017-06-06T03:32:59.522Z,1002.71
2017-06-06T03:34:08.734Z,1002.7
2017-06-06T03:35:18.026Z,1002.68
2017-06-06T03:36:26.991Z,1002.65
2017-06-06T03:37:35.946Z,1002.6
2017-06-06T03:38:44.904Z,1002.61
2017-06-06T03:39:54.109Z,1002.58
2017-06-06T03:41:03.065Z,1002.58
2017-06-06T03:42:12.027Z,1002.6
2017-06-06T03:43:20.990Z,1002.56
2017-06-06T03:44:29.939Z,1002.58
2017-06-06T03:45:39.195Z,1002.57
2017-06-06T03:46:48.156Z,1002.56
2017-06-06T03:47:57.110Z,1002.6
2017-06-06T03:49:06.067Z,1002.56
2017-06-06T03:50:15.026Z,1002.57
2017-06-06T03:51:24.233Z,1002.59
2017-06-06T03:52:33.187Z,1002.6
2017-06-06T03:53:42.146Z,1002.63
2017-06-06T03:54:51.100Z,1002.6
2017-06-06T03:56:00.057Z,1002.56
2017-06-06T03:57:09.324Z,1002.61
2017-06-06T03:58:18.289Z,1002.61
2017-06-06T03:59:27.246Z,1002.61
2017-06-06T04:00:36.231Z,1002.61
2017-06-06T04:01:45.187Z,1002.57
2017-06-06T04:02:54.392Z,1002.57
2017-06-06T04:04:03.349Z,1002.47
2017-06-06T04:05:12.312Z,1002.42
2017-06-06T04:06:21.272Z,1002.48
2017-06-06T04:07:30.230Z,1002.43
2017-06-06T04:08:39.441Z,1002.49
2017-06-06T04:09:48.435Z,1002.46
2017-06-06T04:10:57.390Z,1002.43
2017-06-06T04:12:06.348Z,1002.41
2017-06-06T04:13:15.300Z,1002.33
2017-06-06T04:14:24.506Z,1002.35
2017-06-06T04:15:33.462Z,1002.35
2017-06-06T04:16:42.421Z,1002.35
2017-06-06T04:17:51.376Z,1002.32
2017-06-06T04:19:00.328Z,1002.37
2017-06-06T04:20:09.589Z,1002.4
2017-06-06T04:21:18.544Z,1002.46
2017-06-06T04:22:27.831Z,1002.44
2017-06-06T04:23:36.793Z,1002.47
2017-06-06T04:24:45.757Z,1002.36
2017-06-06T04:25:54.966Z,1002.34
2017-06-06T04:27:03.924Z,1002.3
2017-06-06T04:28:12.889Z,1002.24
2017-06-06T04:29:21.886Z,1002.28
2017-06-06T04:30:30.847Z,1002.26
2017-06-06T04:31:40.135Z,1002.27
2017-06-06T04:32:49.122Z,1002.25
2017-06-06T04:33:58.077Z,1002.23
2017-06-06T04:35:07.063Z,1002.2
2017-06-06T04:36:16.020Z,1002.24
2017-06-06T04:37:25.276Z,1002.29
2017-06-06T04:38:34.230Z,1002.25
2017-06-06T04:39:43.190Z,1002.26
2017-06-06T04:40:52.150Z,1002.23
2017-06-06T04:42:01.106Z,1002.23
2017-06-06T04:43:10.362Z,1002.2
2017-06-06T04:44:19.323Z,1002.19
2017-06-06T04:45:28.282Z,1002.14
2017-06-06T04:46:37.238Z,1002.17
2017-06-06T04:47:46.194Z,1002.17
2017-06-06T04:48:55.404Z,1002.18
2017-06-06T04:50:04.363Z,1002.16
2017-06-06T04:51:13.321Z,1002.09
2017-06-06T04:52:22.277Z,1002.13
2017-06-06T04:53:31.237Z,1002.1
2017-06-06T04:54:40.489Z,1002.1
2017-06-06T04:55:49.776Z,1002.12
2017-06-06T04:56:58.735Z,1002.12
2017-06-06T04:58:07.696Z,1002.15
2017-06-06T04:59:16.685Z,1002.12
2017-06-06T05:00:25.940Z,1002.13
2017-06-06T05:01:34.899Z,1002.12
2017-06-06T05:02:43.857Z,1002.11
2017-06-06T05:03:52.811Z,1002.09
2017-06-06T05:05:01.769Z,1002.1
2017-06-06T05:06:10.977Z,1002.02
2017-06-06T05:07:19.938Z,1002.01
2017-06-06T05:08:28.897Z,1002
2017-06-06T05:09:37.858Z,1001.98
2017-06-06T05:10:46.820Z,1001.95
2017-06-06T05:11:56.112Z,1001.98
2017-06-06T05:13:05.065Z,1001.96
2017-06-06T05:14:14.029Z,1001.94
2017-06-06T05:15:22.986Z,1001.93
2017-06-06T05:16:32.031Z,1001.91
2017-06-06T05:17:41.239Z,1001.91
2017-06-06T05:18:50.203Z,1001.88
2017-06-06T05:19:59.163Z,1001.91
2017-06-06T05:21:08.294Z,1001.87
2017-06-06T05:22:17.343Z,1001.88
2017-06-06T05:23:26.553Z,1001.86
2017-06-06T05:24:35.514Z,1001.83
2017-06-06T05:25:44.473Z,1001.81
2017-06-06T05:26:53.431Z,1001.84
2017-06-06T05:28:02.385Z,1001.77
2017-06-06T05:29:11.597Z,1001.78
2017-06-06T05:30:20.560Z,1001.81
2017-06-06T05:31:29.523Z,1001.76
2017-06-06T05:32:38.483Z,1001.78
2017-06-06T05:33:47.758Z,1001.73
2017-06-06T05:34:57.047Z,1001.73
2017-06-06T05:36:06.094Z,1001.76
2017-06-06T05:37:15.375Z,1001.72
2017-06-06T05:38:24.332Z,1001.73
2017-06-06T05:39:33.288Z,1001.7
2017-06-06T05:40:42.499Z,1001.67
2017-06-06T05:41:51.458Z,1001.65
2017-06-06T05:43:00.411Z,1001.59
2017-06-06T05:44:09.369Z,1001.56
2017-06-06T05:45:18.329Z,1001.56
2017-06-06T05:46:27.540Z,1001.58
2017-06-06T05:47:36.499Z,1001.59
2017-06-06T05:48:45.456Z,1001.64
2017-06-06T05:49:54.496Z,1001.61
2017-06-06T05:51:03.538Z,1001.6
2017-06-06T05:52:12.798Z,1001.61
2017-06-06T05:53:21.748Z,1001.57
2017-06-06T05:54:30.711Z,1001.58
2017-06-06T05:55:39.670Z,1001.52
2017-06-06T05:56:48.627Z,1001.53
2017-06-06T05:57:57.883Z,1001.5
2017-06-06T05:59:06.839Z,1001.49
2017-06-06T06:00:15.794Z,1001.42
2017-06-06T06:01:24.753Z,1001.42
2017-06-06T06:02:33.715Z,1001.42
2017-06-06T06:03:42.678Z,1001.42
2017-06-06T06:04:51.667Z,1001.41
2017-06-06T06:06:00.627Z,1001.38
2017-06-06T06:07:09.594Z,1001.34
2017-06-06T06:08:18.555Z,1001.37
2017-06-06T06:09:27.511Z,1001.35
2017-06-06T06:10:36.469Z,1001.34
2017-06-06T06:11:45.426Z,1001.36
2017-06-06T06:12:54.639Z,1001.32
2017-06-06T06:14:03.590Z,1001.32
2017-06-06T06:15:12.549Z,1001.38
2017-06-06T06:16:21.506Z,1001.26
2017-06-06T06:17:30.556Z,1001.27
2017-06-06T06:18:39.817Z,1001.22
2017-06-06T06:19:48.782Z,1001.19
2017-06-06T06:20:57.740Z,1001.19
2017-06-06T06:22:06.702Z,1001.24
2017-06-06T06:23:16.036Z,1001.23
2017-06-06T06:24:25.283Z,1001.25
2017-06-06T06:25:34.242Z,1001.25
2017-06-06T06:26:43.287Z,1001.23
2017-06-06T06:27:52.241Z,1001.16
2017-06-06T06:29:01.197Z,1001.17
2017-06-06T06:30:10.403Z,1001.16
2017-06-06T06:31:19.361Z,1001.16
2017-06-06T06:32:28.321Z,1001.13
2017-06-06T06:33:37.278Z,1001.15
2017-06-06T06:34:46.554Z,1001.13
2017-06-06T06:35:55.769Z,1001.14
2017-06-06T06:37:04.731Z,1001.14
2017-06-06T06:38:13.692Z,1001.12
2017-06-06T06:39:22.655Z,1001.11
2017-06-06T06:40:31.615Z,1001.08
2017-06-06T06:41:40.819Z,1001.06
2017-06-06T06:42:49.775Z,1001.06
2017-06-06T06:43:58.737Z,1001.07
2017-06-06T06:45:07.694Z,1001.02
2017-06-06T06:46:16.655Z,1000.99
2017-06-06T06:47:25.926Z,1000.97
2017-06-06T06:48:34.881Z,1000.99
2017-06-06T06:49:43.841Z,1000.95
2017-06-06T06:50:52.798Z,1000.94
2017-06-06T06:52:01.761Z,1000.92
2017-06-06T06:53:10.720Z,1000.93
2017-06-06T06:54:19.673Z,1000.96
2017-06-06T06:55:28.630Z,1000.92
2017-06-06T06:56:37.590Z,1000.91
2017-06-06T06:57:46.851Z,1000.93
2017-06-06T06:58:55.807Z,1000.9
2017-06-06T07:00:04.765Z,1000.88
2017-06-06T07:01:13.732Z,1000.88
2017-06-06T07:02:22.696Z,1000.86
2017-06-06T07:03:31.954Z,1000.87
2017-06-06T07:04:40.915Z,1000.78
2017-06-06T07:05:49.879Z,1000.8
2017-06-06T07:06:58.842Z,1000.75
2017-06-06T07:08:07.810Z,1000.72
2017-06-06T07:09:17.066Z,1000.74
2017-06-06T07:10:26.033Z,1000.69
2017-06-06T07:11:34.993Z,1000.76
2017-06-06T07:12:43.957Z,1000.69
2017-06-06T07:13:52.916Z,1000.72
2017-06-06T07:15:02.123Z,1000.75
2017-06-06T07:16:11.080Z,1000.69
2017-06-06T07:17:20.039Z,1000.75
2017-06-06T07:18:28.998Z,1000.71
2017-06-06T07:19:37.957Z,1000.71
2017-06-06T07:20:47.167Z,1000.67
2017-06-06T07:21:56.216Z,1000.67
2017-06-06T07:23:05.174Z,1000.74
2017-06-06T07:24:14.134Z,1000.71
2017-06-06T07:25:23.094Z,1000.69
2017-06-06T07:26:32.305Z,1000.69
2017-06-06T07:27:41.268Z,1000.7
2017-06-06T07:28:50.227Z,1000.67
2017-06-06T07:29:59.188Z,1000.66
2017-06-06T07:31:08.181Z,1000.66
2017-06-06T07:32:17.445Z,1000.67
2017-06-06T07:33:26.406Z,1000.72
2017-06-06T07:34:35.369Z,1000.74
2017-06-06T07:35:44.329Z,1000.68
2017-06-06T07:36:53.312Z,1000.66
2017-06-06T07:38:02.846Z,1000.66
2017-06-06T07:39:11.805Z,1000.68
2017-06-06T07:40:20.796Z,1000.65
2017-06-06T07:41:29.768Z,1000.67
2017-06-06T07:42:38.729Z,1000.65
2017-06-06T07:43:47.936Z,1000.64
2017-06-06T07:44:56.892Z,1000.61
2017-06-06T07:46:05.973Z,1000.63
2017-06-06T07:47:14.928Z,1000.62
2017-06-06T07:48:23.978Z,1000.63
2017-06-06T07:49:33.309Z,1000.7
2017-06-06T07:50:42.268Z,1000.63
2017-06-06T07:51:51.224Z,1000.66
2017-06-06T07:53:00.187Z,1000.6
2017-06-06T07:54:09.150Z,1000.61
2017-06-06T07:55:18.418Z,1000.6
2017-06-06T07:56:27.376Z,1000.6
2017-06-06T07:57:36.336Z,1000.63
2017-06-06T07:58:45.297Z,1000.65
2017-06-06T07:59:54.258Z,1000.65
2017-06-06T08:01:03.555Z,1000.6
2017-06-06T08:02:12.517Z,1000.58
2017-06-06T08:03:21.482Z,1000.65
2017-06-06T08:04:30.449Z,1000.64
2017-06-06T08:05:39.416Z,1000.7
2017-06-06T08:06:48.372Z,1000.67
2017-06-06T08:07:57.332Z,1000.66
2017-06-06T08:09:06.301Z,1000.7
2017-06-06T08:10:15.267Z,1000.65
2017-06-06T08:11:24.473Z,1000.68
2017-06-06T08:12:33.443Z,1000.65
2017-06-06T08:13:42.399Z,1000.72
2017-06-06T08:14:51.359Z,1000.69
2017-06-06T08:16:00.410Z,1000.6
2017-06-06T08:17:09.623Z,1000.64
2017-06-06T08:18:18.576Z,1000.6
2017-06-06T08:19:27.541Z,1000.61
2017-06-06T08:20:36.506Z,1000.6
2017-06-06T08:21:45.468Z,1000.6
2017-06-06T08:22:54.733Z,1000.57
2017-06-06T08:24:03.726Z,1000.6
2017-06-06T08:25:12.685Z,1000.56
2017-06-06T08:26:21.651Z,1000.54
2017-06-06T08:27:30.609Z,1000.56
2017-06-06T08:28:39.820Z,1000.51
2017-06-06T08:29:48.780Z,1000.56
2017-06-06T08:30:57.835Z,1000.52
2017-06-06T08:32:06.795Z,1000.53
2017-06-06T08:33:15.757Z,1000.51
2017-06-06T08:34:24.967Z,1000.5
2017-06-06T08:35:33.936Z,1000.47
2017-06-06T08:36:42.893Z,1000.47
2017-06-06T08:37:51.863Z,1000.45
2017-06-06T08:39:00.824Z,1000.49
2017-06-06T08:40:10.169Z,1000.46
2017-06-06T08:41:19.128Z,1000.47
2017-06-06T08:42:28.085Z,1000.46
2017-06-06T08:43:37.043Z,1000.5
2017-06-06T08:44:46.011Z,1000.48
2017-06-06T08:45:55.219Z,1000.48
2017-06-06T08:47:04.177Z,1000.43
2017-06-06T08:48:13.138Z,1000.42
2017-06-06T08:49:22.091Z,1000.42
2017-06-06T08:50:31.379Z,1000.42
2017-06-06T08:51:40.642Z,1000.43
2017-06-06T08:52:49.606Z,1000.44
2017-06-06T08:53:58.575Z,1000.44
2017-06-06T08:55:07.533Z,1000.44
2017-06-06T08:56:16.530Z,1000.4
2017-06-06T08:57:25.791Z,1000.4
2017-06-06T08:58:34.748Z,1000.36
2017-06-06T08:59:43.707Z,1000.37
2017-06-06T09:00:52.668Z,1000.38
2017-06-06T09:02:01.628Z,1000.39
2017-06-06T09:03:10.835Z,1000.38
2017-06-06T09:04:19.793Z,1000.3
2017-06-06T09:05:28.842Z,1000.3
2017-06-06T09:06:37.802Z,1000.31
2017-06-06T09:07:46.759Z,1000.26
2017-06-06T09:08:55.971Z,1000.25
2017-06-06T09:10:04.929Z,1000.29
2017-06-06T09:11:13.890Z,1000.25
2017-06-06T09:12:22.848Z,1000.28
2017-06-06T09:13:31.806Z,1000.3
2017-06-06T09:14:41.016Z,1000.29
2017-06-06T09:15:49.979Z,1000.3
2017-06-06T09:16:58.937Z,1000.29
2017-06-06T09:18:07.899Z,1000.2
2017-06-06T09:19:17.192Z,1000.18
2017-06-06T09:20:26.401Z,1000.17
2017-06-06T09:21:35.362Z,1000.2
2017-06-06T09:22:44.326Z,1000.11
2017-06-06T09:23:53.294Z,1000.16
2017-06-06T09:25:02.252Z,1000.12
2017-06-06T09:26:11.461Z,1000.14
2017-06-06T09:27:20.420Z,1000.14
2017-06-06T09:28:29.390Z,1000.16
2017-06-06T09:29:38.351Z,1000.14
2017-06-06T09:30:47.314Z,1000.14
2017-06-06T09:31:56.274Z,1000.1
2017-06-06T09:33:05.233Z,1000.1
2017-06-06T09:34:14.194Z,1000.06
2017-06-06T09:35:23.157Z,1000.11
2017-06-06T09:36:32.370Z,1000.04
2017-06-06T09:37:41.336Z,1000.03
2017-06-06T09:38:50.296Z,1000.08
2017-06-06T09:39:59.275Z,1000.07
2017-06-06T09:41:08.238Z,1000.05
2017-06-06T09:42:17.447Z,1000.05
2017-06-06T09:43:26.404Z,999.95
2017-06-06T09:44:35.368Z,999.93
2017-06-06T09:45:44.333Z,999.92
2017-06-06T09:46:53.292Z,999.88
2017-06-06T09:48:02.510Z,999.86
2017-06-06T09:49:11.470Z,999.86
2017-06-06T09:50:20.437Z,999.85
2017-06-06T09:51:29.395Z,999.88
2017-06-06T09:52:38.359Z,999.87
2017-06-06T09:53:47.707Z,999.86
2017-06-06T09:54:56.666Z,999.79
2017-06-06T09:56:05.630Z,999.74
2017-06-06T09:57:14.924Z,999.84
2017-06-06T09:58:23.887Z,999.73
2017-06-06T09:59:33.123Z,999.75
2017-06-06T10:00:42.120Z,999.75
2017-06-06T10:01:51.085Z,999.69
2017-06-06T10:03:00.044Z,999.66
2017-06-06T10:04:09.002Z,999.64
2017-06-06T10:05:18.209Z,999.62
2017-06-06T10:06:27.179Z,999.65
2017-06-06T10:07:36.136Z,999.66
2017-06-06T10:08:45.095Z,999.55
2017-06-06T10:09:54.052Z,999.6
2017-06-06T10:11:03.311Z,999.63
2017-06-06T10:12:12.271Z,999.65
2017-06-06T10:13:21.231Z,999.66
2017-06-06T10:14:30.196Z,999.6
2017-06-06T10:15:39.161Z,999.59
2017-06-06T10:16:48.372Z,999.6
2017-06-06T10:17:57.336Z,999.61
2017-06-06T10:19:06.298Z,999.49
2017-06-06T10:20:15.254Z,999.48
2017-06-06T10:21:24.217Z,999.46
2017-06-06T10:22:33.433Z,999.43
2017-06-06T10:23:42.431Z,999.49
2017-06-06T10:24:51.399Z,999.39
2017-06-06T10:26:00.361Z,999.37
2017-06-06T10:27:09.323Z,999.35
2017-06-06T10:28:18.539Z,999.32
2017-06-06T10:29:27.501Z,999.29
2017-06-06T10:30:36.461Z,999.29
2017-06-06T10:31:45.419Z,999.31
2017-06-06T10:32:54.375Z,999.21
2017-06-06T10:34:03.641Z,999.26
2017-06-06T10:35:12.599Z,999.21
2017-06-06T10:36:21.646Z,999.19
2017-06-06T10:37:30.609Z,999.14
2017-06-06T10:38:39.576Z,999.17
2017-06-06T10:39:48.836Z,999.09
2017-06-06T10:40:57.795Z,999.1
2017-06-06T10:42:06.753Z,999.05
2017-06-06T10:43:15.715Z,999.07
2017-06-06T10:44:24.675Z,999.01
2017-06-06T10:45:33.882Z,999.02
2017-06-06T10:46:42.846Z,998.91
2017-06-06T10:47:51.813Z,998.93
2017-06-06T10:49:01.097Z,998.96
2017-06-06T10:50:10.058Z,998.91
2017-06-06T10:51:19.269Z,998.89
2017-06-06T10:52:28.263Z,998.99
2017-06-06T10:53:37.313Z,998.91
2017-06-06T10:54:46.272Z,998.92
2017-06-06T10:55:55.325Z,998.92
2017-06-06T10:57:04.534Z,998.88
2017-06-06T10:58:13.494Z,998.81
2017-06-06T10:59:22.461Z,998.86
2017-06-06T11:00:31.421Z,998.84
2017-06-06T11:01:40.391Z,998.84
2017-06-06T11:02:49.601Z,998.89
2017-06-06T11:03:58.564Z,998.82
2017-06-06T11:05:07.528Z,998.75
2017-06-06T11:06:16.485Z,998.76
2017-06-06T11:07:25.456Z,998.79
2017-06-06T11:08:34.816Z,998.76
2017-06-06T11:09:43.784Z,998.66
2017-06-06T11:10:52.748Z,998.77
2017-06-06T11:12:01.736Z,998.68
2017-06-06T11:13:10.789Z,998.67
2017-06-06T11:14:20.052Z,998.65
2017-06-06T11:15:29.191Z,998.62
2017-06-06T11:16:38.150Z,998.61
2017-06-06T11:17:47.107Z,998.64
2017-06-06T11:18:56.067Z,998.59
2017-06-06T11:20:05.275Z,998.66
2017-06-06T11:21:14.236Z,998.53
2017-06-06T11:22:23.197Z,998.52
2017-06-06T11:23:32.171Z,998.52
2017-06-06T11:24:41.138Z,998.47
2017-06-06T11:25:50.722Z,998.42
2017-06-06T11:26:59.686Z,998.44
2017-06-06T11:28:08.649Z,998.34
2017-06-06T11:29:17.620Z,998.39
2017-06-06T11:30:26.581Z,998.36
2017-06-06T11:31:35.792Z,998.36
2017-06-06T11:32:44.761Z,998.31
2017-06-06T11:33:53.725Z,998.21
2017-06-06T11:35:02.688Z,998.05
2017-06-06T11:36:11.644Z,998.12
2017-06-06T11:37:20.857Z,998.09
2017-06-06T11:38:29.817Z,998.18
2017-06-06T11:39:38.782Z,998.04
2017-06-06T11:40:47.742Z,998.01
2017-06-06T11:41:56.790Z,997.94
2017-06-06T11:43:06.055Z,997.92
2017-06-06T11:44:15.012Z,997.98
2017-06-06T11:45:23.978Z,997.89
2017-06-06T11:46:32.945Z,997.89
2017-06-06T11:47:41.910Z,997.97
2017-06-06T11:48:51.120Z,997.99
2017-06-06T11:50:00.082Z,997.92
2017-06-06T11:51:09.046Z,997.89
2017-06-06T11:52:18.004Z,997.9
2017-06-06T11:53:27.020Z,997.87
2017-06-06T11:54:36.287Z,997.79
2017-06-06T11:55:45.255Z,997.78
2017-06-06T11:56:54.218Z,997.72
2017-06-06T11:58:03.176Z,997.72
2017-06-06T11:59:12.232Z,997.68
2017-06-06T12:00:21.441Z,997.75
2017-06-06T12:01:30.406Z,997.71
2017-06-06T12:02:39.376Z,997.76
2017-06-06T12:03:48.337Z,997.8
2017-06-06T12:04:57.305Z,997.81
2017-06-06T12:06:06.515Z,997.86
2017-06-06T12:07:15.477Z,997.87
2017-06-06T12:08:24.444Z,997.84
2017-06-06T12:09:33.438Z,997.77
2017-06-06T12:10:42.397Z,997.8
2017-06-06T12:11:51.611Z,997.77
2017-06-06T12:13:00.569Z,997.71
2017-06-06T12:14:09.529Z,997.69
2017-06-06T12:15:18.490Z,997.66
2017-06-06T12:16:27.463Z,997.74
2017-06-06T12:17:36.677Z,997.7
2017-06-06T12:18:45.636Z,997.73
2017-06-06T12:19:54.597Z,997.72
2017-06-06T12:21:03.644Z,997.7
2017-06-06T12:22:12.609Z,997.7
2017-06-06T12:23:22.142Z,997.76
2017-06-06T12:24:31.110Z,997.76
2017-06-06T12:25:40.071Z,997.7
2017-06-06T12:26:49.035Z,997.64
2017-06-06T12:27:57.995Z,997.67
2017-06-06T12:29:07.210Z,997.68
2017-06-06T12:30:16.172Z,997.6
2017-06-06T12:31:25.459Z,997.57
2017-06-06T12:32:34.421Z,997.56
2017-06-06T12:33:43.381Z,997.51
2017-06-06T12:34:52.594Z,997.55
2017-06-06T12:36:01.556Z,997.52
2017-06-06T12:37:10.933Z,997.49
2017-06-06T12:38:19.893Z,997.47
2017-06-06T12:39:28.856Z,997.53
2017-06-06T12:40:38.066Z,997.55
2017-06-06T12:41:47.029Z,997.44
2017-06-06T12:42:56.082Z,997.37
2017-06-06T12:44:05.044Z,997.35
2017-06-06T12:45:14.009Z,997.32
2017-06-06T12:46:23.234Z,997.27
2017-06-06T12:47:32.282Z,997.3
2017-06-06T12:48:41.241Z,997.35
2017-06-06T12:49:50.205Z,997.38
2017-06-06T12:50:59.166Z,997.38
2017-06-06T12:52:08.384Z,997.38
2017-06-06T12:53:17.346Z,997.47
2017-06-06T12:54:26.304Z,997.4
2017-06-06T12:55:35.266Z,997.46
2017-06-06T12:56:44.233Z,997.46
2017-06-06T12:57:53.448Z,997.43
2017-06-06T12:59:02.417Z,997.39
2017-06-06T13:00:11.381Z,997.42
2017-06-06T13:01:20.480Z,997.36
2017-06-06T13:02:29.445Z,997.41
2017-06-06T13:03:38.654Z,997.37
2017-06-06T13:04:47.942Z,997.33
2017-06-06T13:05:56.901Z,997.36
2017-06-06T13:07:06.363Z,997.26
2017-06-06T13:08:15.341Z,997.21
2017-06-06T13:09:24.552Z,997.18
2017-06-06T13:10:33.517Z,997.22
2017-06-06T13:11:42.479Z,997.2
2017-06-06T13:12:51.441Z,997.16
2017-06-06T13:14:00.405Z,997.2
2017-06-06T13:15:10.329Z,997.14
2017-06-06T13:16:19.293Z,997.21
2017-06-06T13:17:28.260Z,997.34
2017-06-06T13:18:37.225Z,997.26
2017-06-06T13:19:46.223Z,997.22
2017-06-06T13:20:55.825Z,997.2
2017-06-06T13:22:04.789Z,997.2
2017-06-06T13:23:13.762Z,997.17
2017-06-06T13:24:22.726Z,997.15
2017-06-06T13:25:31.695Z,997.17
2017-06-06T13:26:40.909Z,997.12
2017-06-06T13:27:49.868Z,997.2
2017-06-06T13:28:58.827Z,997.1
2017-06-06T13:30:07.792Z,997.12
2017-06-06T13:31:16.758Z,997.11
2017-06-06T13:32:25.973Z,997.13
2017-06-06T13:33:34.935Z,997
2017-06-06T13:34:43.897Z,997.01
2017-06-06T13:35:52.863Z,997.02
2017-06-06T13:37:02.152Z,997
2017-06-06T13:38:11.422Z,997.02
2017-06-06T13:39:20.477Z,996.96
2017-06-06T13:40:29.447Z,997.08
2017-06-06T13:41:38.414Z,997.07
2017-06-06T13:42:47.378Z,996.99
2017-06-06T13:43:56.650Z,996.97
2017-06-06T13:45:05.936Z,996.99
2017-06-06T13:46:14.904Z,996.97
2017-06-06T13:47:23.861Z,996.94
2017-06-06T13:48:32.908Z,996.88
2017-06-06T13:49:42.174Z,996.92
2017-06-06T13:50:51.145Z,996.91
2017-06-06T13:52:00.105Z,996.9
2017-06-06T13:53:09.069Z,996.86
2017-06-06T13:54:18.031Z,996.83
2017-06-06T13:55:27.335Z,996.79
2017-06-06T13:56:36.296Z,996.85
2017-06-06T13:57:45.258Z,996.79
2017-06-06T13:58:54.220Z,996.79
2017-06-06T14:00:03.183Z,996.78
2017-06-06T14:01:12.531Z,996.8
2017-06-06T14:02:21.493Z,996.81
2017-06-06T14:03:30.451Z,996.83
2017-06-06T14:04:39.421Z,996.82
2017-06-06T14:05:48.384Z,996.78